Terminal Aerodrome Forecast
Issued by NWS Brownsville, TX

Home | Current Version | Previous Version | Text Only | Print | Product List | Glossary On
Versions: 1 2 3 4 5 6 7 8 9 10 11 12 13
000
FTUS44 KBRO 291720
TAFBRO
TAF
KBRO 291720Z 2918/3018 13007KT P6SM VCTS SCT040CB
     FM300100 12008KT P6SM FEW030
     FM300600 14004KT P6SM OVC250
     FM301200 15006KT P6SM BKN250=

USA.gov is the U.S. government's official web portal to all federal, state and local government web resources and services.